createdAt,value
2023-01-29T00:00:46.843Z,3.67
2023-01-29T00:02:52.299Z,4.20
2023-01-29T00:05:07.353Z,4.13
2023-01-29T00:07:22.531Z,4.07
2023-01-29T00:09:27.785Z,3.90
2023-01-29T00:11:33.142Z,4.35
2023-01-29T00:13:38.692Z,4.10
2023-01-29T00:15:43.571Z,3.70
2023-01-29T00:17:48.702Z,3.92
2023-01-29T00:19:53.580Z,3.88
2023-01-29T00:22:01.421Z,4.20
2023-01-29T00:24:06.860Z,3.83
2023-01-29T00:26:13.141Z,3.30
2023-01-29T00:28:22.394Z,3.60
2023-01-29T00:30:28.181Z,3.10
2023-01-29T00:32:35.679Z,3.03
2023-01-29T00:34:40.930Z,3.53
2023-01-29T00:36:46.715Z,3.45
2023-01-29T00:38:58.937Z,3.55
2023-01-29T00:41:22.135Z,3.55
2023-01-29T00:43:42.613Z,3.85
2023-01-29T00:45:47.593Z,4.10
2023-01-29T00:47:52.611Z,4.18
2023-01-29T00:49:58.061Z,4.28
2023-01-29T00:52:15.448Z,3.80
2023-01-29T00:56:28.748Z,4.57
2023-01-29T00:58:34.491Z,4.38
2023-01-29T01:00:39.521Z,4.47
2023-01-29T01:02:57.379Z,4.85
2023-01-29T01:05:02.824Z,4.20
2023-01-29T01:09:27.714Z,4.85
2023-01-29T01:13:41.399Z,4.43
2023-01-29T01:15:46.684Z,4.53
2023-01-29T01:17:54.352Z,4.70
2023-01-29T01:19:59.797Z,5.55
2023-01-29T01:22:05.038Z,5.40
2023-01-29T01:24:10.229Z,5.63
2023-01-29T01:26:17.185Z,5.97
2023-01-29T01:28:24.718Z,6.10
2023-01-29T01:30:30.210Z,5.40
2023-01-29T01:32:36.140Z,6.13
2023-01-29T01:34:41.097Z,5.82
2023-01-29T01:36:46.453Z,6.00
2023-01-29T01:38:51.544Z,5.70
2023-01-29T01:40:57.273Z,5.82
2023-01-29T01:43:05.598Z,6.45
2023-01-29T01:45:24.711Z,5.55
2023-01-29T01:47:37.288Z,5.30
2023-01-29T01:49:42.293Z,6.07
2023-01-29T01:51:52.925Z,5.70
2023-01-29T01:54:02.741Z,5.85
2023-01-29T01:56:13.414Z,6.32
2023-01-29T01:58:28.443Z,6.40
2023-01-29T02:00:36.243Z,5.32
2023-01-29T02:02:56.273Z,6.03
2023-01-29T02:05:14.099Z,6.00
2023-01-29T02:07:31.654Z,5.30
2023-01-29T02:09:44.478Z,4.85
2023-01-29T02:11:49.987Z,5.47
2023-01-29T02:13:56.259Z,5.68
2023-01-29T02:16:06.345Z,6.22
2023-01-29T02:18:12.682Z,6.50
2023-01-29T02:20:25.925Z,7.30
2023-01-29T02:22:56.779Z,6.70
2023-01-29T02:25:36.488Z,6.65
2023-01-29T02:28:22.457Z,6.13
2023-01-29T02:30:41.670Z,6.60
2023-01-29T02:32:58.729Z,6.60
2023-01-29T02:35:32.088Z,6.75
2023-01-29T02:37:42.501Z,7.70
2023-01-29T02:39:57.486Z,6.57
2023-01-29T02:42:12.294Z,7.03
2023-01-29T02:44:26.860Z,7.15
2023-01-29T02:46:40.939Z,6.90
2023-01-29T02:48:54.632Z,6.85
2023-01-29T02:51:04.913Z,6.60
2023-01-29T02:53:17.915Z,7.97
2023-01-29T02:55:28.913Z,8.07
2023-01-29T02:57:38.270Z,7.30
2023-01-29T02:59:48.600Z,8.20
2023-01-29T03:02:01.745Z,7.53
2023-01-29T03:04:14.117Z,7.53
2023-01-29T03:06:26.522Z,7.85
2023-01-29T03:08:43.173Z,7.55
2023-01-29T03:10:56.486Z,7.75
2023-01-29T03:13:06.192Z,8.93
2023-01-29T03:15:17.749Z,7.97
2023-01-29T03:17:44.674Z,8.07
2023-01-29T03:19:52.071Z,7.63
2023-01-29T03:22:04.439Z,8.85
2023-01-29T03:24:24.519Z,8.18
2023-01-29T03:26:43.704Z,7.95
2023-01-29T03:29:03.307Z,8.75
2023-01-29T03:31:25.665Z,7.60
2023-01-29T03:33:45.171Z,7.72
2023-01-29T03:35:56.720Z,7.85
2023-01-29T03:38:02.299Z,7.47
2023-01-29T03:40:10.998Z,7.82
2023-01-29T03:42:26.048Z,7.72
2023-01-29T03:44:41.167Z,7.60
2023-01-29T03:46:59.032Z,8.27
2023-01-29T03:49:18.217Z,7.43
2023-01-29T03:51:31.254Z,7.40
2023-01-29T03:53:47.298Z,8.13
2023-01-29T03:56:02.356Z,7.95
2023-01-29T03:58:22.306Z,7.72
2023-01-29T04:00:34.987Z,7.47
2023-01-29T04:02:50.615Z,7.25
2023-01-29T04:05:03.189Z,7.80
2023-01-29T04:07:14.902Z,7.35
2023-01-29T04:09:25.435Z,8.05
2023-01-29T04:11:32.062Z,7.68
2023-01-29T04:13:39.982Z,7.55
2023-01-29T04:15:49.434Z,7.40
2023-01-29T04:17:58.497Z,7.10
2023-01-29T04:20:27.856Z,7.68
2023-01-29T04:22:37.220Z,7.65
2023-01-29T04:24:43.125Z,8.27
2023-01-29T04:27:06.967Z,7.32
2023-01-29T04:29:30.240Z,8.85
2023-01-29T04:31:47.934Z,7.47
2023-01-29T04:34:06.305Z,6.45
2023-01-29T04:36:31.215Z,6.32
2023-01-29T04:38:53.514Z,6.90
2023-01-29T04:41:08.590Z,6.45
2023-01-29T04:43:25.752Z,6.68
2023-01-29T04:45:42.116Z,6.43
2023-01-29T04:47:56.787Z,6.68
2023-01-29T04:50:15.591Z,6.35
2023-01-29T04:52:33.977Z,7.18
2023-01-29T04:55:04.315Z,6.78
2023-01-29T04:57:17.213Z,7.38
2023-01-29T04:59:32.208Z,7.13
2023-01-29T05:01:38.671Z,6.88
2023-01-29T05:03:47.882Z,6.50
2023-01-29T05:05:57.117Z,7.65
2023-01-29T05:08:07.804Z,6.72
2023-01-29T05:10:17.025Z,7.80
2023-01-29T05:12:22.427Z,6.53
2023-01-29T05:14:30.524Z,6.70
2023-01-29T05:16:43.992Z,6.45
2023-01-29T05:18:49.988Z,6.60
2023-01-29T05:20:56.478Z,6.40
2023-01-29T05:23:04.359Z,6.75
2023-01-29T05:25:24.773Z,6.93
2023-01-29T05:27:48.351Z,6.85
2023-01-29T05:29:53.307Z,6.60
2023-01-29T05:31:58.747Z,7.05
2023-01-29T05:34:04.220Z,6.93
2023-01-29T05:36:13.057Z,6.47
2023-01-29T05:38:22.060Z,6.90
2023-01-29T05:40:27.916Z,6.80
2023-01-29T05:42:32.795Z,6.57
2023-01-29T05:44:38.056Z,6.53
2023-01-29T05:46:43.874Z,6.90
2023-01-29T05:48:49.335Z,6.95
2023-01-29T05:50:54.524Z,6.85
2023-01-29T05:53:00.878Z,7.35
2023-01-29T05:55:11.572Z,6.80
2023-01-29T05:57:18.254Z,7.13
2023-01-29T05:59:23.559Z,7.20
2023-01-29T06:01:29.000Z,7.03
2023-01-29T06:03:34.339Z,7.55
2023-01-29T06:05:41.392Z,8.20
2023-01-29T06:07:47.658Z,7.70
2023-01-29T06:09:55.448Z,7.70
2023-01-29T06:12:02.941Z,7.25
2023-01-29T06:14:07.863Z,7.10
2023-01-29T06:16:14.628Z,6.63
2023-01-29T06:18:19.725Z,7.70
2023-01-29T06:20:25.194Z,7.95
2023-01-29T06:22:30.439Z,7.90
2023-01-29T06:24:35.388Z,7.85
2023-01-29T06:26:41.777Z,7.32
2023-01-29T06:28:52.273Z,7.40
2023-01-29T06:31:11.441Z,7.22
2023-01-29T06:33:21.817Z,7.90
2023-01-29T06:35:26.761Z,7.05
2023-01-29T06:37:32.130Z,7.70
2023-01-29T06:39:39.647Z,7.50
2023-01-29T06:41:45.457Z,8.35
2023-01-29T06:43:52.908Z,7.63
2023-01-29T06:46:00.423Z,7.30
2023-01-29T06:48:05.346Z,7.10
2023-01-29T06:50:11.252Z,7.78
2023-01-29T06:52:16.203Z,7.95
2023-01-29T06:54:21.069Z,8.75
2023-01-29T06:56:27.203Z,7.82
2023-01-29T06:58:32.176Z,7.80
2023-01-29T07:00:40.740Z,8.38
2023-01-29T07:02:45.623Z,8.55
2023-01-29T07:04:51.067Z,7.53
2023-01-29T07:06:56.101Z,8.32
2023-01-29T07:09:03.066Z,6.85
2023-01-29T07:11:09.274Z,7.60
2023-01-29T07:13:14.362Z,7.57
2023-01-29T07:15:21.746Z,7.82
2023-01-29T07:17:29.191Z,7.28
2023-01-29T07:19:34.781Z,7.45
2023-01-29T07:21:40.687Z,7.88
2023-01-29T07:23:45.632Z,7.85
2023-01-29T07:25:52.069Z,8.05
2023-01-29T07:28:00.996Z,7.70
2023-01-29T07:30:06.608Z,7.60
2023-01-29T07:32:11.559Z,7.82
2023-01-29T07:34:19.064Z,8.23
2023-01-29T07:36:24.203Z,7.70
2023-01-29T07:38:29.142Z,8.20
2023-01-29T07:40:34.211Z,8.60
2023-01-29T07:42:40.412Z,7.95
2023-01-29T07:44:45.678Z,8.68
2023-01-29T07:46:50.541Z,8.65
2023-01-29T07:48:55.807Z,8.13
2023-01-29T07:51:04.218Z,7.68
2023-01-29T07:53:09.277Z,8.55
2023-01-29T07:55:14.577Z,7.97
2023-01-29T07:57:22.739Z,8.27
2023-01-29T07:59:27.703Z,7.75
2023-01-29T08:01:32.670Z,8.32
2023-01-29T08:03:37.790Z,8.70
2023-01-29T08:05:42.846Z,7.68
2023-01-29T08:08:06.446Z,8.48
2023-01-29T08:10:13.953Z,7.88
2023-01-29T08:12:19.506Z,8.68
2023-01-29T08:14:24.884Z,8.05
2023-01-29T08:16:30.799Z,8.27
2023-01-29T08:18:35.894Z,8.45
2023-01-29T08:20:41.373Z,7.55
2023-01-29T08:22:46.482Z,7.40
2023-01-29T08:25:06.138Z,8.50
2023-01-29T08:27:12.895Z,8.65
2023-01-29T08:29:18.925Z,8.95
2023-01-29T08:31:24.104Z,8.88
2023-01-29T08:33:38.759Z,8.43
2023-01-29T08:35:44.315Z,8.80
2023-01-29T08:37:58.413Z,8.52
2023-01-29T08:40:06.216Z,9.63
2023-01-29T08:42:11.146Z,8.63
2023-01-29T08:44:16.203Z,9.52
2023-01-29T08:46:21.159Z,10.85
2023-01-29T08:48:26.925Z,8.90
2023-01-29T08:50:33.123Z,9.02
2023-01-29T08:52:38.002Z,9.00
2023-01-29T08:54:43.375Z,8.98
2023-01-29T08:56:50.822Z,8.93
2023-01-29T08:58:58.252Z,9.10
2023-01-29T09:01:12.576Z,9.40
2023-01-29T09:03:17.527Z,9.13
2023-01-29T09:05:23.625Z,9.45
2023-01-29T09:07:28.493Z,8.95
2023-01-29T09:09:33.743Z,8.77
2023-01-29T09:11:41.789Z,6.90
2023-01-29T09:13:49.246Z,6.32
2023-01-29T09:15:54.191Z,6.78
2023-01-29T09:17:59.082Z,5.28
2023-01-29T09:20:06.054Z,5.35
2023-01-29T09:22:12.754Z,5.90
2023-01-29T09:24:17.812Z,5.75
2023-01-29T09:26:22.819Z,6.10
2023-01-29T09:28:27.779Z,6.45
2023-01-29T09:30:37.788Z,6.30
2023-01-29T09:32:53.214Z,6.10
2023-01-29T09:34:58.968Z,5.65
2023-01-29T09:37:04.152Z,5.97
2023-01-29T09:39:09.231Z,5.45
2023-01-29T09:41:30.253Z,4.97
2023-01-29T09:43:46.996Z,5.78
2023-01-29T09:46:01.030Z,4.95
2023-01-29T09:48:08.813Z,5.93
2023-01-29T09:50:21.264Z,6.28
2023-01-29T09:52:30.844Z,6.05
2023-01-29T09:54:46.448Z,5.18
2023-01-29T09:56:53.936Z,5.88
2023-01-29T09:59:02.073Z,5.90
2023-01-29T10:01:19.978Z,6.15
2023-01-29T10:03:44.084Z,6.13
2023-01-29T10:06:08.277Z,6.55
2023-01-29T10:08:43.998Z,7.72
2023-01-29T10:10:54.822Z,8.50
2023-01-29T10:13:13.716Z,8.32
2023-01-29T10:15:35.781Z,7.68
2023-01-29T10:18:05.312Z,7.45
2023-01-29T10:20:55.841Z,7.72
2023-01-29T10:23:18.285Z,7.38
2023-01-29T10:25:25.638Z,7.05
2023-01-29T10:27:38.552Z,6.47
2023-01-29T10:29:46.922Z,7.70
2023-01-29T10:34:08.022Z,7.20
2023-01-29T10:36:22.873Z,7.97
2023-01-29T10:38:44.817Z,7.53
2023-01-29T10:40:57.456Z,8.35
2023-01-29T10:43:11.565Z,7.97
2023-01-29T10:45:29.625Z,7.63
2023-01-29T10:48:19.038Z,8.23
2023-01-29T10:50:45.299Z,8.70
2023-01-29T10:53:33.095Z,9.15
2023-01-29T10:55:53.836Z,8.52
2023-01-29T10:58:10.759Z,8.63
2023-01-29T11:00:23.813Z,8.70
2023-01-29T11:02:28.729Z,8.93
2023-01-29T11:04:35.323Z,7.68
2023-01-29T11:06:43.279Z,8.68
2023-01-29T11:08:57.816Z,9.10
2023-01-29T11:11:11.539Z,8.15
2023-01-29T11:13:19.340Z,8.68
2023-01-29T11:15:30.786Z,8.80
2023-01-29T11:17:36.409Z,8.63
2023-01-29T11:19:46.145Z,9.00
2023-01-29T11:22:04.391Z,8.23
2023-01-29T11:24:18.757Z,7.60
2023-01-29T11:26:26.369Z,8.85
2023-01-29T11:28:43.331Z,8.20
2023-01-29T11:30:48.396Z,8.23
2023-01-29T11:33:01.313Z,9.07
2023-01-29T11:35:22.646Z,9.10
2023-01-29T11:37:37.542Z,9.35
2023-01-29T11:39:47.643Z,9.05
2023-01-29T11:41:58.364Z,9.88
2023-01-29T11:44:04.174Z,9.00
2023-01-29T11:46:16.161Z,9.30
2023-01-29T11:48:24.556Z,7.07
2023-01-29T11:50:32.944Z,9.60
2023-01-29T11:52:43.980Z,9.05
2023-01-29T11:54:53.726Z,8.95
2023-01-29T11:56:59.470Z,9.25
2023-01-29T11:59:05.953Z,9.40
2023-01-29T12:01:12.529Z,9.15
2023-01-29T12:03:25.215Z,7.07
2023-01-29T12:05:30.956Z,8.10
2023-01-29T12:07:36.940Z,8.80
2023-01-29T12:09:51.726Z,8.15
2023-01-29T12:11:57.519Z,8.88
2023-01-29T12:14:08.399Z,9.20
2023-01-29T12:18:35.812Z,7.63
2023-01-29T12:20:46.466Z,8.32
2023-01-29T12:23:01.154Z,8.07
2023-01-29T12:25:19.968Z,8.63
2023-01-29T12:27:31.410Z,8.13
2023-01-29T12:29:47.840Z,8.75
2023-01-29T12:32:01.984Z,9.45
2023-01-29T12:34:18.938Z,8.70
2023-01-29T12:36:30.895Z,7.10
2023-01-29T12:38:37.197Z,8.07
2023-01-29T12:40:49.741Z,8.57
2023-01-29T12:43:01.900Z,7.90
2023-01-29T12:45:12.753Z,7.13
2023-01-29T12:47:23.817Z,8.35
2023-01-29T12:49:33.050Z,7.80
2023-01-29T12:51:44.566Z,6.45
2023-01-29T12:53:57.780Z,8.30
2023-01-29T12:56:12.781Z,8.25
2023-01-29T12:58:27.759Z,7.95
2023-01-29T13:00:39.140Z,7.95
2023-01-29T13:02:52.869Z,8.10
2023-01-29T13:05:05.531Z,8.32
2023-01-29T13:07:18.954Z,6.95
2023-01-29T13:09:29.752Z,6.00
2023-01-29T13:11:44.082Z,7.38
2023-01-29T13:13:55.673Z,7.50
2023-01-29T13:16:02.341Z,6.47
2023-01-29T13:18:34.506Z,6.57
2023-01-29T13:20:41.496Z,7.45
2023-01-29T13:22:49.249Z,7.50
2023-01-29T13:25:04.508Z,8.40
2023-01-29T13:27:25.230Z,7.80
2023-01-29T13:29:33.031Z,7.68
2023-01-29T13:31:41.326Z,8.40
2023-01-29T13:33:54.286Z,6.95
2023-01-29T13:36:02.989Z,7.35
2023-01-29T13:38:18.265Z,8.13
2023-01-29T13:40:28.357Z,8.10
2023-01-29T13:42:45.558Z,8.77
2023-01-29T13:44:53.840Z,8.07
2023-01-29T13:47:02.089Z,8.35
2023-01-29T13:49:07.391Z,7.80
2023-01-29T13:51:20.766Z,7.93
2023-01-29T13:53:30.296Z,8.43
2023-01-29T13:55:39.147Z,7.60
2023-01-29T13:57:58.187Z,7.28
2023-01-29T14:00:03.394Z,6.18
2023-01-29T14:02:26.027Z,6.63
2023-01-29T14:04:34.661Z,7.78
2023-01-29T14:06:50.126Z,8.43
2023-01-29T14:08:55.003Z,8.38
2023-01-29T14:11:38.790Z,8.10
2023-01-29T14:13:49.063Z,4.70
2023-01-29T14:16:38.064Z,7.10
2023-01-29T14:18:57.390Z,7.60
2023-01-29T14:21:08.398Z,7.43
2023-01-29T14:23:48.162Z,7.03
2023-01-29T14:25:54.293Z,6.63
2023-01-29T14:28:00.733Z,7.80
2023-01-29T14:30:12.437Z,8.43
2023-01-29T14:32:24.996Z,7.70
2023-01-29T14:34:34.409Z,7.90
2023-01-29T14:36:43.671Z,8.18
2023-01-29T14:38:53.772Z,6.85
2023-01-29T14:41:26.077Z,7.53
2023-01-29T14:43:32.186Z,7.68
2023-01-29T14:45:41.925Z,7.85
2023-01-29T14:48:39.231Z,7.25
2023-01-29T14:51:02.119Z,8.20
2023-01-29T14:53:14.652Z,8.27
2023-01-29T14:55:29.657Z,8.25
2023-01-29T14:57:36.089Z,8.73
2023-01-29T14:59:56.909Z,8.90
2023-01-29T15:02:15.862Z,9.40
2023-01-29T15:04:28.121Z,8.57
2023-01-29T15:06:42.177Z,8.43
2023-01-29T15:08:56.430Z,9.15
2023-01-29T15:11:18.184Z,8.23
2023-01-29T15:13:34.388Z,8.38
2023-01-29T15:15:46.613Z,8.52
2023-01-29T15:18:04.209Z,9.20
2023-01-29T15:20:33.733Z,8.55
2023-01-29T15:22:46.226Z,8.93
2023-01-29T15:25:07.401Z,9.38
2023-01-29T15:27:19.435Z,9.70
2023-01-29T15:29:28.546Z,9.18
2023-01-29T15:31:33.751Z,9.98
2023-01-29T15:33:44.866Z,9.10
2023-01-29T15:35:58.796Z,8.20
2023-01-29T15:38:19.952Z,6.43
2023-01-29T15:40:25.616Z,9.18
2023-01-29T15:42:32.684Z,5.68
2023-01-29T15:44:38.009Z,8.82
2023-01-29T15:46:46.863Z,9.10
2023-01-29T15:48:56.325Z,9.15
2023-01-29T15:51:04.954Z,9.60
2023-01-29T15:53:16.249Z,8.85
2023-01-29T15:55:24.276Z,9.85
2023-01-29T15:57:37.662Z,10.02
2023-01-29T15:59:51.739Z,9.13
2023-01-29T16:01:57.043Z,9.43
2023-01-29T16:04:06.166Z,10.00
2023-01-29T16:06:11.707Z,9.80
2023-01-29T16:08:18.183Z,9.45
2023-01-29T16:10:26.015Z,9.60
2023-01-29T16:12:31.388Z,9.73
2023-01-29T16:14:37.199Z,10.40
2023-01-29T16:16:45.294Z,10.23
2023-01-29T16:18:59.906Z,10.20
2023-01-29T16:21:12.909Z,9.55
2023-01-29T16:23:22.216Z,10.02
2023-01-29T16:25:27.968Z,7.53
2023-01-29T16:27:35.758Z,10.05
2023-01-29T16:29:40.856Z,10.38
2023-01-29T16:31:49.899Z,9.68
2023-01-29T16:33:56.786Z,10.05
2023-01-29T16:36:04.338Z,10.52
2023-01-29T16:38:28.927Z,9.52
2023-01-29T16:40:38.275Z,9.68
2023-01-29T16:42:43.989Z,9.60
2023-01-29T16:44:52.520Z,9.40
2023-01-29T16:46:57.821Z,10.00
2023-01-29T16:49:06.311Z,10.07
2023-01-29T16:51:20.456Z,9.98
2023-01-29T16:53:28.297Z,10.85
2023-01-29T16:55:41.603Z,11.13
2023-01-29T16:57:56.622Z,10.73
2023-01-29T17:00:09.612Z,11.38
2023-01-29T17:02:26.466Z,11.40
2023-01-29T17:04:32.102Z,11.35
2023-01-29T17:06:37.745Z,11.48
2023-01-29T17:08:45.995Z,10.98
2023-01-29T17:10:51.332Z,11.30
2023-01-29T17:13:00.734Z,10.70
2023-01-29T17:15:29.038Z,11.43
2023-01-29T17:17:36.344Z,10.55
2023-01-29T17:19:41.793Z,10.85
2023-01-29T17:21:47.199Z,10.48
2023-01-29T17:23:55.549Z,11.65
2023-01-29T17:26:02.957Z,11.27
2023-01-29T17:28:08.459Z,11.80
2023-01-29T17:30:19.056Z,12.45
2023-01-29T17:32:24.068Z,11.43
2023-01-29T17:34:29.637Z,11.38
2023-01-29T17:36:35.247Z,12.48
2023-01-29T17:38:40.694Z,12.40
2023-01-29T17:40:54.015Z,10.85
2023-01-29T17:42:58.946Z,11.65
2023-01-29T17:45:03.810Z,11.27
2023-01-29T17:47:10.714Z,10.85
2023-01-29T17:49:25.941Z,12.32
2023-01-29T17:53:45.519Z,10.27
2023-01-29T17:55:54.364Z,10.73
2023-01-29T17:57:59.335Z,10.77
2023-01-29T18:00:05.231Z,10.52
2023-01-29T18:02:28.904Z,10.57
2023-01-29T18:04:36.719Z,10.98
2023-01-29T18:08:48.959Z,13.48
2023-01-29T18:10:56.472Z,13.30
2023-01-29T18:13:01.642Z,12.45
2023-01-29T18:15:07.119Z,12.00
2023-01-29T18:17:12.201Z,12.13
2023-01-29T18:19:23.257Z,12.30
2023-01-29T18:21:28.157Z,14.13
2023-01-29T18:23:33.420Z,13.65
2023-01-29T18:25:38.565Z,13.82
2023-01-29T18:27:46.647Z,16.08
2023-01-29T18:29:51.634Z,15.35
2023-01-29T18:31:56.596Z,15.38
2023-01-29T18:34:01.616Z,15.93
2023-01-29T18:36:07.521Z,17.13
2023-01-29T18:38:12.424Z,14.90
2023-01-29T18:40:17.874Z,15.00
2023-01-29T18:42:22.831Z,16.20
2023-01-29T18:44:30.544Z,16.95
2023-01-29T18:46:36.123Z,29.52
2023-01-29T18:48:42.757Z,13.65
2023-01-29T18:50:47.948Z,14.93
2023-01-29T18:52:53.058Z,14.85
2023-01-29T18:54:58.308Z,14.70
2023-01-29T18:57:08.669Z,14.52
2023-01-29T18:59:19.295Z,14.57
2023-01-29T19:01:28.128Z,14.98
2023-01-29T19:03:33.159Z,15.55
2023-01-29T19:05:38.188Z,15.20
2023-01-29T19:07:43.883Z,14.63
2023-01-29T19:09:50.398Z,14.00
2023-01-29T19:11:55.511Z,14.95
2023-01-29T19:14:00.685Z,14.70
2023-01-29T19:16:09.762Z,14.45
2023-01-29T19:18:17.649Z,14.20
2023-01-29T19:20:23.150Z,14.38
2023-01-29T19:22:28.156Z,13.90
2023-01-29T19:24:38.704Z,13.75
2023-01-29T19:26:43.689Z,13.60
2023-01-29T19:28:48.695Z,14.52
2023-01-29T19:30:53.609Z,13.80
2023-01-29T19:32:58.558Z,14.18
2023-01-29T19:35:06.156Z,14.80
2023-01-29T19:37:11.880Z,14.90
2023-01-29T19:39:17.060Z,16.00
2023-01-29T19:41:22.134Z,13.85
2023-01-29T19:43:27.112Z,15.45
2023-01-29T19:45:37.127Z,15.15
2023-01-29T19:47:56.741Z,20.95
2023-01-29T19:50:01.811Z,21.23
2023-01-29T19:52:15.017Z,19.02
2023-01-29T19:54:21.399Z,18.80
2023-01-29T19:56:26.320Z,18.13
2023-01-29T19:58:32.125Z,14.60
2023-01-29T20:00:37.083Z,14.23
2023-01-29T20:02:41.978Z,15.65
2023-01-29T20:04:46.903Z,14.23
2023-01-29T20:06:51.849Z,14.48
2023-01-29T20:09:02.137Z,14.10
2023-01-29T20:11:09.748Z,14.18
2023-01-29T20:13:14.718Z,15.20
2023-01-29T20:15:19.805Z,17.33
2023-01-29T20:17:24.697Z,15.55
2023-01-29T20:19:29.578Z,15.63
2023-01-29T20:21:34.451Z,15.93
2023-01-29T20:23:40.891Z,15.70
2023-01-29T20:25:48.684Z,15.65
2023-01-29T20:27:54.334Z,14.98
2023-01-29T20:29:59.771Z,14.85
2023-01-29T20:32:04.728Z,14.52
2023-01-29T20:34:09.849Z,15.25
2023-01-29T20:36:15.872Z,15.32
2023-01-29T20:38:20.757Z,15.35
2023-01-29T20:40:25.801Z,15.13
2023-01-29T20:42:33.272Z,15.40
2023-01-29T20:44:38.216Z,15.82
2023-01-29T20:46:43.153Z,14.75
2023-01-29T20:48:49.154Z,15.05
2023-01-29T20:50:54.019Z,15.15
2023-01-29T20:52:58.936Z,14.95
2023-01-29T20:55:04.132Z,14.60
2023-01-29T20:57:09.708Z,14.63
2023-01-29T20:59:17.386Z,15.05
2023-01-29T21:01:24.152Z,15.30
2023-01-29T21:03:29.064Z,14.85
2023-01-29T21:05:33.983Z,14.88
2023-01-29T21:07:38.889Z,14.68
2023-01-29T21:09:43.955Z,14.75
2023-01-29T21:11:48.959Z,14.43
2023-01-29T21:13:57.661Z,15.10
2023-01-29T21:16:05.508Z,14.95
2023-01-29T21:18:10.445Z,14.30
2023-01-29T21:20:16.924Z,14.02
2023-01-29T21:22:24.059Z,14.82
2023-01-29T21:24:29.303Z,15.30
2023-01-29T21:26:34.236Z,15.50
2023-01-29T21:28:39.157Z,14.65
2023-01-29T21:30:44.466Z,14.65
2023-01-29T21:32:52.255Z,14.48
2023-01-29T21:34:57.169Z,14.70
2023-01-29T21:37:02.120Z,14.88
2023-01-29T21:39:16.634Z,15.13
2023-01-29T21:41:41.591Z,14.45
2023-01-29T21:43:45.469Z,14.93
2023-01-29T21:45:57.254Z,15.35
2023-01-29T21:48:04.758Z,10.55
2023-01-29T21:50:11.341Z,15.38
2023-01-29T21:52:17.303Z,15.50
2023-01-29T21:54:22.180Z,15.07
2023-01-29T21:56:27.130Z,12.77
2023-01-29T21:58:32.617Z,15.10
2023-01-29T22:00:37.601Z,12.45
2023-01-29T22:02:42.687Z,13.80
2023-01-29T22:04:50.392Z,12.68
2023-01-29T22:06:55.713Z,14.30
2023-01-29T22:09:00.720Z,13.63
2023-01-29T22:11:09.045Z,10.15
2023-01-29T22:13:14.458Z,14.18
2023-01-29T22:15:21.116Z,14.07
2023-01-29T22:17:27.761Z,14.27
2023-01-29T22:19:32.660Z,12.73
2023-01-29T22:21:40.132Z,11.48
2023-01-29T22:23:45.700Z,15.40
2023-01-29T22:25:50.952Z,9.02
2023-01-29T22:27:56.026Z,11.75
2023-01-29T22:30:00.923Z,15.50
2023-01-29T22:32:06.137Z,16.10
2023-01-29T22:34:12.152Z,16.00
2023-01-29T22:36:20.038Z,16.02
2023-01-29T22:38:28.149Z,15.88
2023-01-29T22:40:33.264Z,15.25
2023-01-29T22:42:38.186Z,16.00
2023-01-29T22:44:43.756Z,14.35
2023-01-29T22:46:48.990Z,16.05
2023-01-29T22:48:54.606Z,12.60
2023-01-29T22:51:10.103Z,10.07
2023-01-29T22:53:15.166Z,16.45
2023-01-29T22:55:23.223Z,16.88
2023-01-29T22:57:28.289Z,16.05
2023-01-29T22:59:33.264Z,13.38
2023-01-29T23:01:38.745Z,12.95
2023-01-29T23:03:43.684Z,15.43
2023-01-29T23:05:48.937Z,11.40
2023-01-29T23:07:53.885Z,11.35
2023-01-29T23:09:59.620Z,18.50
2023-01-29T23:12:08.628Z,18.70
2023-01-29T23:14:13.516Z,17.70
2023-01-29T23:16:20.991Z,17.50
2023-01-29T23:18:25.908Z,18.50
2023-01-29T23:20:31.260Z,18.80
2023-01-29T23:22:36.645Z,16.70
2023-01-29T23:24:41.564Z,18.30
2023-01-29T23:26:59.444Z,18.90
2023-01-29T23:29:07.035Z,11.27
2023-01-29T23:31:12.014Z,14.88
2023-01-29T23:33:17.434Z,14.20
2023-01-29T23:35:22.337Z,16.40
2023-01-29T23:37:27.899Z,18.13
2023-01-29T23:39:33.142Z,15.85
2023-01-29T23:41:38.573Z,17.33
2023-01-29T23:43:43.861Z,16.70
2023-01-29T23:45:51.702Z,15.80
2023-01-29T23:50:02.084Z,18.08
2023-01-29T23:52:07.822Z,15.75
2023-01-29T23:54:13.316Z,17.30
2023-01-29T23:56:19.588Z,17.33
2023-01-29T23:58:24.467Z,15.90
